Terminal Aerodrome Forecast
Issued by NWS

Home | Current Version | Previous Version | Text Only | Print | Product List | Glossary On
Versions: 1 2 3 4 5 6 7 8 9 10 11 12 13 14
000
FTUS46 KSGX 261351 AAA
TAFONT
TAF AMD
KONT 261351Z 2614/2718 25005KT 5SM HZ SCT010 SCT200
      TEMPO 2614/2616 2SM BR BKN006
     FM261900 25010G18KT P6SM SCT200
     FM270400 26007KT P6SM SKC
     FM271000 VRB04KT 5SM BR BKN010
     FM271600 VRB03KT P6SM SCT010=

USA.gov is the U.S. government's official web portal to all federal, state and local government web resources and services.